createdAt,value
2017-09-28T00:02:14.628Z,15.76
2017-09-28T00:04:42.107Z,15.76
2017-09-28T00:07:09.585Z,15.76
2017-09-28T00:09:37.083Z,15.76
2017-09-28T00:12:04.545Z,15.75
2017-09-28T00:14:32.120Z,15.74
2017-09-28T00:16:59.603Z,15.74
2017-09-28T00:19:27.072Z,15.73
2017-09-28T00:21:54.884Z,15.70
2017-09-28T00:24:22.370Z,15.68
2017-09-28T00:26:49.894Z,15.66
2017-09-28T00:29:17.375Z,15.66
2017-09-28T00:31:44.845Z,15.63
2017-09-28T00:34:12.326Z,15.63
2017-09-28T00:36:39.787Z,15.59
2017-09-28T00:39:07.270Z,15.59
2017-09-28T00:41:34.728Z,15.58
2017-09-28T00:44:02.207Z,15.55
2017-09-28T00:46:29.749Z,15.53
2017-09-28T00:48:57.246Z,15.52
2017-09-28T00:51:25.470Z,15.51
2017-09-28T00:53:52.951Z,15.50
2017-09-28T00:56:20.510Z,15.49
2017-09-28T00:58:47.994Z,15.49
2017-09-28T01:01:15.478Z,15.49
2017-09-28T01:03:42.949Z,15.47
2017-09-28T01:06:10.447Z,15.46
2017-09-28T01:08:37.937Z,15.46
2017-09-28T01:11:05.417Z,15.46
2017-09-28T01:13:32.904Z,15.42
2017-09-28T01:16:00.371Z,15.41
2017-09-28T01:18:27.853Z,15.38
2017-09-28T01:20:55.318Z,15.36
2017-09-28T01:23:22.857Z,15.31
2017-09-28T01:25:50.334Z,15.27
2017-09-28T01:30:51.540Z,15.22
2017-09-28T01:33:19.008Z,15.21
2017-09-28T01:35:46.627Z,15.20
2017-09-28T01:38:14.111Z,15.19
2017-09-28T01:40:41.579Z,15.16
2017-09-28T01:43:09.102Z,15.14
2017-09-28T01:45:36.573Z,15.11
2017-09-28T01:48:04.047Z,15.09
2017-09-28T01:50:31.537Z,15.08
2017-09-28T01:52:59.016Z,15.07
2017-09-28T01:55:26.500Z,15.07
2017-09-28T01:57:53.968Z,15.08
2017-09-28T02:00:21.439Z,15.09
2017-09-28T02:02:48.905Z,15.12
2017-09-28T02:05:16.690Z,15.16
2017-09-28T02:07:44.159Z,15.18
2017-09-28T02:10:11.627Z,15.19
2017-09-28T02:12:39.106Z,15.22
2017-09-28T02:15:06.573Z,15.24
2017-09-28T02:17:34.039Z,15.25
2017-09-28T02:20:01.519Z,15.27
2017-09-28T02:22:28.990Z,15.26
2017-09-28T02:24:56.850Z,15.27
2017-09-28T02:27:24.407Z,15.29
2017-09-28T02:29:51.983Z,15.30
2017-09-28T02:32:19.482Z,15.31
2017-09-28T02:34:46.954Z,15.31
2017-09-28T02:37:14.449Z,15.31
2017-09-28T02:39:41.928Z,15.31
2017-09-28T02:42:09.395Z,15.32
2017-09-28T02:44:36.915Z,15.33
2017-09-28T02:47:04.386Z,15.36
2017-09-28T02:49:31.870Z,15.37
2017-09-28T02:51:59.351Z,15.38
2017-09-28T02:54:26.855Z,15.39
2017-09-28T02:56:54.351Z,15.39
2017-09-28T02:59:21.828Z,15.39
2017-09-28T03:01:49.303Z,15.38
2017-09-28T03:04:16.803Z,15.38
2017-09-28T03:06:44.305Z,15.38
2017-09-28T03:09:11.770Z,15.38
2017-09-28T03:11:39.235Z,15.36
2017-09-28T03:14:06.821Z,15.36
2017-09-28T03:16:34.297Z,15.34
2017-09-28T03:19:02.751Z,15.34
2017-09-28T03:21:30.225Z,15.32
2017-09-28T03:23:57.969Z,15.32
2017-09-28T03:26:25.434Z,15.32
2017-09-28T03:28:52.909Z,15.31
2017-09-28T03:31:20.440Z,15.33
2017-09-28T03:33:48.121Z,15.32
2017-09-28T03:36:15.594Z,15.30
2017-09-28T03:38:43.071Z,15.29
2017-09-28T03:41:10.551Z,15.29
2017-09-28T03:43:38.141Z,15.31
2017-09-28T03:46:05.623Z,15.31
2017-09-28T03:48:33.097Z,15.32
2017-09-28T03:51:00.587Z,15.30
2017-09-28T03:53:28.064Z,15.29
2017-09-28T03:55:55.538Z,15.30
2017-09-28T03:58:23.032Z,15.27
2017-09-28T04:00:50.505Z,15.25
2017-09-28T04:03:18.108Z,15.26
2017-09-28T04:05:45.584Z,15.25
2017-09-28T04:08:13.064Z,15.26
2017-09-28T04:10:40.542Z,15.24
2017-09-28T04:13:08.007Z,15.24
2017-09-28T04:15:35.494Z,15.23
2017-09-28T04:18:03.064Z,15.22
2017-09-28T04:20:30.544Z,15.21
2017-09-28T04:22:58.066Z,15.20
2017-09-28T04:25:25.523Z,15.20
2017-09-28T04:27:53.020Z,15.20
2017-09-28T04:30:20.495Z,15.19
2017-09-28T04:32:47.966Z,15.17
2017-09-28T04:35:15.452Z,15.17
2017-09-28T04:37:43.035Z,15.15
2017-09-28T04:40:10.523Z,15.14
2017-09-28T04:42:37.987Z,15.13
2017-09-28T04:45:05.473Z,15.10
2017-09-28T04:47:32.973Z,15.09
2017-09-28T04:50:00.508Z,15.08
2017-09-28T04:52:27.990Z,15.07
2017-09-28T04:54:55.487Z,15.06
2017-09-28T04:57:22.975Z,15.04
2017-09-28T04:59:50.460Z,15.04
2017-09-28T05:02:17.960Z,15.02
2017-09-28T05:04:45.451Z,15.02
2017-09-28T05:07:12.937Z,15.02
2017-09-28T05:09:40.580Z,15.01
2017-09-28T05:12:08.153Z,15.01
2017-09-28T05:14:35.642Z,15.01
2017-09-28T05:17:03.122Z,14.99
2017-09-28T05:19:30.619Z,14.98
2017-09-28T05:21:58.160Z,14.98
2017-09-28T05:24:25.740Z,14.98
2017-09-28T05:26:53.229Z,14.98
2017-09-28T05:29:20.747Z,14.96
2017-09-28T05:31:48.430Z,14.95
2017-09-28T05:34:15.928Z,14.96
2017-09-28T05:36:43.402Z,14.96
2017-09-28T05:39:10.899Z,14.95
2017-09-28T05:41:38.398Z,14.94
2017-09-28T05:44:05.881Z,14.94
2017-09-28T05:46:33.454Z,14.93
2017-09-28T05:49:00.931Z,14.92
2017-09-28T05:51:28.492Z,14.94
2017-09-28T05:53:55.982Z,14.96
2017-09-28T05:56:23.463Z,14.99
2017-09-28T05:58:50.932Z,15.01
2017-09-28T06:01:18.421Z,15.02
2017-09-28T06:03:45.911Z,15.03
2017-09-28T06:06:13.380Z,15.04
2017-09-28T06:08:40.859Z,15.07
2017-09-28T06:11:08.339Z,15.09
2017-09-28T06:13:35.846Z,15.14
2017-09-28T06:16:17.983Z,15.18
2017-09-28T06:18:45.665Z,15.21
2017-09-28T06:21:13.213Z,15.24
2017-09-28T06:23:40.706Z,15.26
2017-09-28T06:26:08.199Z,15.27
2017-09-28T06:28:35.686Z,15.30
2017-09-28T06:31:04.261Z,15.31
2017-09-28T06:33:31.722Z,15.35
2017-09-28T06:35:59.187Z,15.38
2017-09-28T06:38:26.667Z,15.38
2017-09-28T06:40:54.148Z,15.40
2017-09-28T06:43:21.637Z,15.42
2017-09-28T06:45:49.099Z,15.46
2017-09-28T06:48:16.601Z,15.49
2017-09-28T06:50:44.128Z,15.52
2017-09-28T06:53:11.606Z,15.57
2017-09-28T06:55:39.071Z,15.60
2017-09-28T06:58:06.566Z,15.65
2017-09-28T07:00:34.037Z,15.69
2017-09-28T07:03:01.503Z,15.68
2017-09-28T07:05:28.998Z,15.64
2017-09-28T07:07:56.468Z,15.61
2017-09-28T07:10:23.955Z,15.61
2017-09-28T07:12:51.429Z,15.63
2017-09-28T07:15:18.938Z,15.61
2017-09-28T07:17:46.403Z,15.60
2017-09-28T07:20:13.878Z,15.57
2017-09-28T07:22:41.346Z,15.60
2017-09-28T07:25:09.142Z,15.63
2017-09-28T07:27:36.632Z,15.64
2017-09-28T07:30:04.122Z,15.66
2017-09-28T07:32:31.625Z,15.69
2017-09-28T07:34:59.097Z,15.74
2017-09-28T07:37:26.582Z,15.80
2017-09-28T07:39:54.110Z,15.87
2017-09-28T07:42:21.676Z,15.95
2017-09-28T07:44:49.150Z,16.07
2017-09-28T07:47:16.631Z,16.20
2017-09-28T07:49:44.133Z,16.31
2017-09-28T07:52:11.608Z,16.43
2017-09-28T07:54:39.095Z,16.52
2017-09-28T07:57:06.564Z,16.60
2017-09-28T07:59:34.063Z,16.65
2017-09-28T08:02:01.533Z,16.68
2017-09-28T08:04:29.024Z,16.70
2017-09-28T08:06:56.496Z,16.76
2017-09-28T08:09:23.973Z,16.77
2017-09-28T08:11:51.467Z,16.82
2017-09-28T08:14:18.990Z,16.84
2017-09-28T08:16:46.472Z,16.86
2017-09-28T08:19:13.962Z,16.87
2017-09-28T08:21:41.453Z,16.88
2017-09-28T08:24:08.989Z,16.90
2017-09-28T08:26:36.463Z,16.92
2017-09-28T08:29:03.933Z,16.98
2017-09-28T08:31:31.419Z,17.01
2017-09-28T08:33:58.892Z,17.04
2017-09-28T08:36:26.378Z,17.06
2017-09-28T08:38:53.851Z,17.07
2017-09-28T08:41:21.358Z,17.09
2017-09-28T08:43:48.856Z,17.14
2017-09-28T08:46:16.338Z,17.17
2017-09-28T08:48:43.821Z,17.21
2017-09-28T08:51:11.310Z,17.23
2017-09-28T08:53:38.832Z,17.24
2017-09-28T08:56:06.302Z,17.25
2017-09-28T08:58:33.792Z,17.30
2017-09-28T09:01:01.277Z,17.32
2017-09-28T09:03:28.766Z,17.34
2017-09-28T09:05:56.261Z,17.40
2017-09-28T09:08:23.773Z,17.43
2017-09-28T09:10:51.239Z,17.45
2017-09-28T09:13:18.704Z,17.48
2017-09-28T09:15:46.277Z,17.53
2017-09-28T09:18:13.730Z,17.57
2017-09-28T09:20:41.220Z,17.64
2017-09-28T09:23:08.699Z,17.66
2017-09-28T09:25:36.183Z,17.65
2017-09-28T09:28:03.667Z,17.64
2017-09-28T09:30:31.214Z,17.65
2017-09-28T09:32:58.723Z,17.66
2017-09-28T09:35:26.273Z,17.68
2017-09-28T09:37:53.757Z,17.78
2017-09-28T09:40:21.253Z,17.85
2017-09-28T09:42:48.753Z,17.95
2017-09-28T09:45:16.223Z,18.02
2017-09-28T09:47:43.731Z,18.25
2017-09-28T09:50:11.220Z,18.81
2017-09-28T09:52:38.714Z,18.95
2017-09-28T09:55:06.189Z,19.05
2017-09-28T09:57:33.667Z,19.05
2017-09-28T10:00:01.158Z,19.04
2017-09-28T10:02:28.629Z,18.92
2017-09-28T10:04:56.128Z,18.93
2017-09-28T10:07:28.130Z,18.93
2017-09-28T10:10:13.746Z,18.98
2017-09-28T10:12:46.287Z,18.97
2017-09-28T10:15:33.195Z,18.84
2017-09-28T10:18:00.675Z,19.04
2017-09-28T10:20:28.182Z,19.13
2017-09-28T10:22:55.685Z,19.19
2017-09-28T10:25:23.147Z,19.26
2017-09-28T10:27:50.632Z,19.45
2017-09-28T10:30:18.142Z,19.64
2017-09-28T10:32:45.648Z,19.84
2017-09-28T10:35:13.134Z,20.04
2017-09-28T10:37:40.618Z,20.18
2017-09-28T10:40:08.086Z,20.33
2017-09-28T10:42:35.628Z,20.33
2017-09-28T10:45:03.117Z,20.36
2017-09-28T10:47:30.595Z,20.44
2017-09-28T10:49:58.088Z,20.55
2017-09-28T10:52:25.577Z,20.59
2017-09-28T10:54:53.051Z,20.74
2017-09-28T10:57:20.593Z,20.89
2017-09-28T10:59:48.089Z,20.96
2017-09-28T11:02:15.646Z,21.10
2017-09-28T11:04:43.155Z,21.33
2017-09-28T11:07:10.631Z,21.69
2017-09-28T11:09:38.128Z,22.14
2017-09-28T11:12:05.606Z,22.69
2017-09-28T11:14:33.078Z,23.38
2017-09-28T11:17:00.548Z,23.95
2017-09-28T11:19:28.015Z,24.45
2017-09-28T11:21:55.499Z,24.68
2017-09-28T11:24:22.971Z,24.93
2017-09-28T11:26:50.463Z,25.24
2017-09-28T11:29:17.943Z,25.42
2017-09-28T11:31:45.416Z,25.42
2017-09-28T11:34:12.904Z,25.34
2017-09-28T11:36:40.368Z,25.27
2017-09-28T11:39:07.885Z,24.86
2017-09-28T11:41:35.357Z,24.40
2017-09-28T11:44:02.871Z,23.98
2017-09-28T11:46:30.349Z,23.71
2017-09-28T11:48:57.823Z,23.41
2017-09-28T11:51:25.307Z,23.24
2017-09-28T11:53:52.857Z,23.27
2017-09-28T11:56:20.415Z,23.49
2017-09-28T11:58:47.895Z,23.33
2017-09-28T12:01:15.358Z,23.03
2017-09-28T12:03:42.848Z,22.95
2017-09-28T12:06:10.327Z,23.16
2017-09-28T12:08:37.949Z,23.62
2017-09-28T12:11:05.413Z,24.01
2017-09-28T12:13:32.914Z,24.33
2017-09-28T12:16:00.399Z,24.34
2017-09-28T12:18:27.962Z,24.23
2017-09-28T12:20:55.437Z,24.03
2017-09-28T12:23:22.911Z,23.63
2017-09-28T12:25:50.388Z,23.28
2017-09-28T12:28:17.977Z,23.03
2017-09-28T12:30:45.470Z,23.03
2017-09-28T12:33:12.959Z,23.00
2017-09-28T12:35:40.439Z,22.90
2017-09-28T12:38:07.931Z,22.82
2017-09-28T12:40:35.397Z,22.87
2017-09-28T12:43:02.899Z,22.97
2017-09-28T12:45:30.363Z,23.05
2017-09-28T12:47:57.945Z,23.06
2017-09-28T12:50:25.420Z,23.38
2017-09-28T12:52:52.912Z,23.59
2017-09-28T12:55:20.406Z,23.59
2017-09-28T12:57:48.014Z,23.35
2017-09-28T13:00:16.042Z,23.40
2017-09-28T13:02:43.523Z,23.61
2017-09-28T13:05:10.991Z,23.68
2017-09-28T13:07:38.486Z,23.50
2017-09-28T13:10:05.948Z,23.36
2017-09-28T13:12:33.442Z,23.33
2017-09-28T13:15:00.923Z,23.13
2017-09-28T13:17:28.439Z,23.12
2017-09-28T13:19:55.919Z,23.11
2017-09-28T13:22:23.397Z,22.98
2017-09-28T13:24:50.905Z,22.86
2017-09-28T13:27:18.385Z,22.69
2017-09-28T13:29:45.882Z,22.62
2017-09-28T13:32:13.363Z,22.51
2017-09-28T13:34:40.951Z,22.31
2017-09-28T13:37:08.435Z,22.17
2017-09-28T13:39:35.970Z,22.08
2017-09-28T13:42:03.475Z,22.05
2017-09-28T13:47:04.894Z,21.97
2017-09-28T13:49:32.454Z,21.86
2017-09-28T13:51:59.923Z,21.78
2017-09-28T13:54:27.399Z,21.71
2017-09-28T13:56:54.879Z,21.67
2017-09-28T13:59:22.384Z,21.62
2017-09-28T14:01:50.157Z,21.57
2017-09-28T14:04:17.657Z,21.52
2017-09-28T14:06:45.167Z,21.47
2017-09-28T14:09:12.691Z,21.43
2017-09-28T14:11:40.179Z,21.37
2017-09-28T14:14:07.650Z,21.36
2017-09-28T14:16:35.147Z,21.37
2017-09-28T14:19:02.627Z,21.40
2017-09-28T14:21:30.114Z,21.55
2017-09-28T14:23:57.593Z,21.69
2017-09-28T14:26:25.073Z,21.74
2017-09-28T14:28:52.580Z,21.74
2017-09-28T14:31:20.158Z,21.71
2017-09-28T14:33:47.672Z,21.66
2017-09-28T14:36:15.149Z,21.63
2017-09-28T14:38:42.675Z,21.62
2017-09-28T14:41:10.184Z,21.66
2017-09-28T14:43:37.671Z,21.68
2017-09-28T14:46:05.164Z,21.69
2017-09-28T14:48:32.638Z,21.68
2017-09-28T14:51:00.185Z,21.69
2017-09-28T14:53:27.656Z,21.67
2017-09-28T14:55:55.130Z,21.64
2017-09-28T14:58:22.609Z,21.62
2017-09-28T15:00:50.136Z,21.59
2017-09-28T15:03:17.701Z,21.57
2017-09-28T15:05:45.284Z,21.53
2017-09-28T15:08:12.778Z,21.49
2017-09-28T15:10:40.253Z,21.46
2017-09-28T15:13:07.734Z,21.42
2017-09-28T15:15:35.241Z,21.37
2017-09-28T15:18:02.886Z,21.31
2017-09-28T15:20:30.387Z,21.27
2017-09-28T15:22:57.884Z,21.24
2017-09-28T15:25:25.359Z,21.23
2017-09-28T15:27:54.813Z,21.19
2017-09-28T15:30:22.540Z,21.15
2017-09-28T15:32:50.097Z,21.12
2017-09-28T15:35:17.627Z,21.10
2017-09-28T15:37:45.259Z,21.03
2017-09-28T15:40:12.988Z,21.01
2017-09-28T15:42:40.771Z,20.98
2017-09-28T15:45:08.353Z,20.98
2017-09-28T15:47:35.881Z,21.00
2017-09-28T15:50:03.636Z,21.00
2017-09-28T15:52:31.177Z,21.01
2017-09-28T15:54:58.753Z,20.97
2017-09-28T15:57:26.585Z,20.95
2017-09-28T15:59:54.420Z,20.93
2017-09-28T16:02:22.255Z,20.89
2017-09-28T16:04:49.972Z,20.84
2017-09-28T16:07:20.473Z,20.79
2017-09-28T16:09:48.147Z,20.76
2017-09-28T16:12:15.643Z,20.72
2017-09-28T16:14:43.139Z,20.69
2017-09-28T16:17:10.676Z,20.65
2017-09-28T16:19:38.167Z,20.58
2017-09-28T16:22:05.652Z,20.53
2017-09-28T16:24:33.207Z,20.46
2017-09-28T16:27:00.671Z,20.39
2017-09-28T16:29:28.528Z,20.36
2017-09-28T16:31:56.094Z,20.33
2017-09-28T16:34:23.656Z,20.28
2017-09-28T16:36:51.129Z,20.21
2017-09-28T16:39:18.670Z,20.17
2017-09-28T16:41:46.540Z,20.16
2017-09-28T16:44:14.007Z,20.14
2017-09-28T16:46:41.497Z,20.13
2017-09-28T16:49:09.004Z,20.08
2017-09-28T16:51:36.511Z,20.06
2017-09-28T16:54:03.997Z,20.04
2017-09-28T16:56:31.473Z,20.01
2017-09-28T16:58:58.965Z,19.97
2017-09-28T17:01:26.547Z,19.95
2017-09-28T17:03:54.042Z,19.92
2017-09-28T17:06:21.508Z,19.90
2017-09-28T17:08:49.010Z,19.86
2017-09-28T17:11:16.541Z,19.80
2017-09-28T17:13:44.032Z,19.76
2017-09-28T17:16:11.528Z,19.75
2017-09-28T17:18:39.037Z,19.72
2017-09-28T17:21:06.517Z,19.70
2017-09-28T17:23:34.015Z,19.66
2017-09-28T17:26:01.519Z,19.62
2017-09-28T17:28:28.985Z,19.58
2017-09-28T17:30:56.452Z,19.52
2017-09-28T17:33:23.946Z,19.48
2017-09-28T17:35:51.443Z,19.46
2017-09-28T17:38:18.940Z,19.43
2017-09-28T17:40:46.399Z,19.42
2017-09-28T17:43:13.921Z,19.41
2017-09-28T17:45:41.394Z,19.37
2017-09-28T17:48:08.912Z,19.35
2017-09-28T17:50:36.405Z,19.33
2017-09-28T17:53:04.008Z,19.32
2017-09-28T17:55:31.785Z,19.29
2017-09-28T17:57:59.260Z,19.27
2017-09-28T18:00:26.851Z,19.26
2017-09-28T18:02:54.351Z,19.25
2017-09-28T18:05:21.850Z,19.23
2017-09-28T18:07:49.392Z,19.21
2017-09-28T18:10:16.871Z,19.22
2017-09-28T18:12:44.360Z,19.20
2017-09-28T18:15:11.835Z,19.19
2017-09-28T18:17:40.255Z,19.16
2017-09-28T18:20:08.318Z,19.15
2017-09-28T18:22:35.810Z,19.14
2017-09-28T18:25:04.457Z,19.12
2017-09-28T18:27:32.012Z,19.12
2017-09-28T18:29:59.516Z,19.11
2017-09-28T18:32:26.998Z,19.11
2017-09-28T18:34:54.483Z,19.11
2017-09-28T18:37:22.028Z,19.12
2017-09-28T18:39:49.490Z,19.12
2017-09-28T18:42:17.607Z,19.11
2017-09-28T18:44:45.113Z,19.11
2017-09-28T18:47:12.601Z,19.11
2017-09-28T18:49:40.099Z,19.11
2017-09-28T18:52:08.580Z,19.13
2017-09-28T18:54:36.081Z,19.12
2017-09-28T18:57:03.621Z,19.14
2017-09-28T18:59:31.140Z,19.16
2017-09-28T19:01:58.640Z,19.17
2017-09-28T19:04:26.187Z,19.15
2017-09-28T19:06:53.658Z,19.14
2017-09-28T19:09:21.222Z,19.13
2017-09-28T19:11:48.703Z,19.12
2017-09-28T19:14:16.199Z,19.11
2017-09-28T19:16:43.686Z,19.11
2017-09-28T19:19:11.178Z,19.10
2017-09-28T19:21:38.720Z,19.08
2017-09-28T19:24:06.199Z,19.07
2017-09-28T19:26:33.694Z,19.05
2017-09-28T19:29:01.199Z,19.04
2017-09-28T19:31:28.674Z,19.02
2017-09-28T19:33:56.161Z,19.00
2017-09-28T19:36:23.616Z,19.00
2017-09-28T19:38:51.121Z,18.97
2017-09-28T19:41:18.622Z,18.95
2017-09-28T19:43:46.452Z,18.93
2017-09-28T19:46:13.920Z,18.90
2017-09-28T19:48:41.407Z,18.89
2017-09-28T19:51:08.897Z,18.88
2017-09-28T19:53:36.375Z,18.86
2017-09-28T19:56:04.254Z,18.84
2017-09-28T19:58:31.733Z,18.81
2017-09-28T20:00:59.203Z,18.79
2017-09-28T20:03:26.699Z,18.77
2017-09-28T20:05:54.177Z,18.74
2017-09-28T20:08:21.688Z,18.73
2017-09-28T20:10:49.184Z,18.73
2017-09-28T20:13:16.674Z,18.71
2017-09-28T20:15:44.188Z,18.68
2017-09-28T20:18:11.663Z,18.66
2017-09-28T20:20:39.163Z,18.65
2017-09-28T20:23:06.641Z,18.64
2017-09-28T20:25:34.145Z,18.64
2017-09-28T20:28:01.628Z,18.63
2017-09-28T20:30:29.166Z,18.62
2017-09-28T20:32:57.019Z,18.63
2017-09-28T20:35:24.520Z,18.63
2017-09-28T20:37:52.013Z,18.63
2017-09-28T20:40:19.485Z,18.62
2017-09-28T20:42:47.051Z,18.62
2017-09-28T20:45:14.544Z,18.59
2017-09-28T20:47:42.022Z,18.58
2017-09-28T20:50:09.562Z,18.56
2017-09-28T20:52:37.028Z,18.57
2017-09-28T20:55:04.531Z,18.54
2017-09-28T20:57:31.996Z,18.51
2017-09-28T20:59:59.498Z,18.50
2017-09-28T21:02:27.001Z,18.49
2017-09-28T21:04:54.810Z,18.49
2017-09-28T21:07:22.497Z,18.49
2017-09-28T21:09:49.978Z,18.49
2017-09-28T21:12:17.559Z,18.49
2017-09-28T21:14:45.039Z,18.52
2017-09-28T21:17:12.505Z,18.49
2017-09-28T21:19:39.985Z,18.47
2017-09-28T21:22:07.480Z,18.46
2017-09-28T21:24:35.020Z,18.45
2017-09-28T21:27:02.487Z,18.44
2017-09-28T21:29:30.263Z,18.43
2017-09-28T21:31:57.751Z,18.42
2017-09-28T21:34:25.279Z,18.41
2017-09-28T21:36:52.759Z,18.41
2017-09-28T21:39:20.389Z,18.39
2017-09-28T21:41:47.888Z,18.38
2017-09-28T21:44:15.380Z,18.32
2017-09-28T21:46:43.207Z,18.27
2017-09-28T21:49:10.748Z,18.26
2017-09-28T21:51:38.219Z,18.21
2017-09-28T21:54:05.728Z,18.17
2017-09-28T21:56:33.212Z,18.12
2017-09-28T21:59:00.780Z,18.05
2017-09-28T22:01:28.259Z,18.00
2017-09-28T22:03:55.732Z,17.99
2017-09-28T22:06:23.260Z,17.95
2017-09-28T22:08:50.761Z,17.92
2017-09-28T22:11:18.224Z,17.91
2017-09-28T22:13:45.707Z,17.92
2017-09-28T22:16:13.280Z,17.92
2017-09-28T22:18:40.782Z,17.93
2017-09-28T22:21:08.299Z,17.92
2017-09-28T22:23:36.072Z,17.95
2017-09-28T22:26:03.574Z,17.96
2017-09-28T22:28:31.039Z,17.95
2017-09-28T22:30:58.524Z,17.97
2017-09-28T22:33:26.028Z,17.97
2017-09-28T22:35:53.531Z,17.96
2017-09-28T22:38:21.120Z,17.97
2017-09-28T22:40:48.610Z,17.98
2017-09-28T22:43:16.084Z,18.00
2017-09-28T22:45:43.588Z,18.02
2017-09-28T22:48:11.107Z,18.03
2017-09-28T22:50:38.613Z,18.06
2017-09-28T22:53:06.139Z,18.06
2017-09-28T22:55:33.619Z,18.07
2017-09-28T22:58:01.105Z,18.05
2017-09-28T23:00:28.563Z,18.06
2017-09-28T23:02:56.053Z,18.06
2017-09-28T23:05:23.527Z,18.07
2017-09-28T23:07:51.116Z,18.06
2017-09-28T23:10:18.610Z,18.07
2017-09-28T23:12:46.091Z,18.08
2017-09-28T23:15:13.695Z,18.09
2017-09-28T23:17:41.250Z,18.09
2017-09-28T23:20:08.727Z,18.09
2017-09-28T23:22:36.208Z,18.09
2017-09-28T23:25:03.679Z,18.09
2017-09-28T23:27:31.155Z,18.08
2017-09-28T23:29:58.623Z,18.09
2017-09-28T23:32:26.106Z,18.07
2017-09-28T23:34:53.584Z,18.05
2017-09-28T23:37:21.079Z,18.03
2017-09-28T23:39:48.659Z,18.02
2017-09-28T23:42:16.226Z,18.02
2017-09-28T23:44:43.711Z,18.02
2017-09-28T23:47:11.201Z,18.01
2017-09-28T23:49:38.678Z,18.01
2017-09-28T23:52:06.194Z,18.00
2017-09-28T23:54:33.735Z,18.00
2017-09-28T23:57:01.218Z,17.99
2017-09-28T23:59:28.686Z,17.99
